Cove, Arkansas
Current Conditions -  °F | °C
As of 1:55 PM on Wednesday 17 Dec 2014 (Local Time) from KMEZ Reporting Station
Overcast Overcast  
Wind Chill: 34°   Ceiling: 7000
Heat Index: 37°   Visibility: 7mi
Dew Point: 36°   Wind: 5mph
Humidity: 93%   Direction: 50°NE
Pressure: 30.21"   Gusts: NA
Location:  34.44°N, 94.41°W
Report Text: KMEZ 171955Z AUTO 05004KT 7SM SCT043 BKN070 OVC090 03/02 A3021 RMK AO2 P0003
Loading
Personal Weather Stations






























Interactive Weather Map New forecast layout! Learn more

10-Day Weather Forecast

Advertisements
Track Severe Weather on mobile